Impacts TAF Board INFO
FOR SITUATIONAL AWARENESS. NOT TO BE USED FOR FLIGHT PLANNING PURPOSES.
IDs:

KATL - Atlanta/Hartsfield-J, GA, US

Issued at 1738 UTC 17 Feb 2018
Updated at 1937 UTC 17 Feb 2018
Potential Impact None Slight Moderate High
Time1852Z 17/20Z 17/21Z 17/22Z 17/23Z 18/00Z 18/01Z 18/02Z 18/03Z 18/04Z 18/05Z 18/06Z 18/07Z 18/08Z>>
Type OBS PRVL PRVL PRVL PRVL PRVL PRVL PRVL PRVL PRVL PRVL PRVL PRVL PRVL
VIS 10 >6 >6 >6 >6 >6 >6 >6 >6 >6 >6 >6 >6 >6
CIG 37 40 40 40 -- -- -- 15 15 15 15 15 15 15
Cover BKN BKN BKN BKN SCT SCT SCT OVC OVC OVC OVC OVC OVC OVC
FltCat VFR VFR VFR VFR VFR VFR VFR MVFR MVFR MVFR MVFR MVFR MVFR MVFR
WX -- VCSH VCSH VCSH -- -- -- -- -- -- -- -- -- --
WDir 240 210 210 210 250 250 250 300 300 300 300 300 300 300
WSpd 9 8 8 8 8 8 8 8 8 8 8 8 8 8
WGst -- 18 18 18 -- -- -- -- -- -- -- -- -- --

Raw TAF
KATL 171738Z 1718/1824 17008KT P6SM VCSH FEW015 BKN040
  FM171900 21008G18KT P6SM VCSH BKN040
  FM172300 25008KT P6SM SCT040
  FM180200 30008KT P6SM OVC015
  FM181100 33010KT P6SM FEW250
  FM181500 04005KT P6SM SCT040
  FM182000 16006KT P6SM BKN040


Raw METAR
KATL 171852Z 24009KT 10SM SCT030 BKN037 BKN047 BKN250 23/16 A3008 RMK AO2 SLP182 T02280161
KATL 171752Z 21006KT 10SM SCT025 BKN055 BKN250 21/16 A3011 RMK AO2 SLP193 T02060156 10206 20117 58013
KATL 171652Z 15005KT 10SM SCT014 SCT047 BKN070 BKN250 17/13 A3013 RMK AO2 SLP201 T01670128
KATL 171631Z VRB05KT 10SM SCT011 BKN041 OVC050 16/12 A3014 RMK AO2 T01610122

METAR Board
Radar Display
Forecast Discussion

FOR SITUATIONAL AWARENESS. NOT TO BE USED FOR FLIGHT PLANNING PURPOSES.